sensor_id;sensor_type;location;lat;lon;timestamp;temperature;humidity
52849;DHT22;38714;53.180;5.812;2023-04-24T00:02:13;10.90;99.90
52849;DHT22;38714;53.180;5.812;2023-04-24T00:04:41;10.90;99.90
52849;DHT22;38714;53.180;5.812;2023-04-24T00:07:07;10.90;99.90
52849;DHT22;38714;53.180;5.812;2023-04-24T00:09:35;10.90;99.90
52849;DHT22;38714;53.180;5.812;2023-04-24T00:12:01;10.90;99.90
52849;DHT22;38714;53.180;5.812;2023-04-24T00:14:30;11.00;99.90
52849;DHT22;38714;53.180;5.812;2023-04-24T00:16:55;10.90;99.90
52849;DHT22;38714;53.180;5.812;2023-04-24T00:19:21;10.90;99.90
52849;DHT22;38714;53.180;5.812;2023-04-24T00:21:47;10.90;99.90
52849;DHT22;38714;53.180;5.812;2023-04-24T00:24:16;10.90;99.90
52849;DHT22;38714;53.180;5.812;2023-04-24T00:26:41;10.90;99.90
52849;DHT22;38714;53.180;5.812;2023-04-24T00:29:07;10.90;99.90
52849;DHT22;38714;53.180;5.812;2023-04-24T00:31:33;10.90;99.90
52849;DHT22;38714;53.180;5.812;2023-04-24T00:34:00;10.90;99.90
52849;DHT22;38714;53.180;5.812;2023-04-24T00:36:26;10.90;99.90
52849;DHT22;38714;53.180;5.812;2023-04-24T00:38:53;10.90;99.90
52849;DHT22;38714;53.180;5.812;2023-04-24T00:41:19;10.90;99.90
52849;DHT22;38714;53.180;5.812;2023-04-24T00:43:45;10.90;99.90
52849;DHT22;38714;53.180;5.812;2023-04-24T00:46:11;10.90;99.90
52849;DHT22;38714;53.180;5.812;2023-04-24T00:48:39;10.90;99.90
52849;DHT22;38714;53.180;5.812;2023-04-24T00:51:05;10.90;99.90
52849;DHT22;38714;53.180;5.812;2023-04-24T00:53:30;10.90;99.90
52849;DHT22;38714;53.180;5.812;2023-04-24T00:55:57;10.90;99.90
52849;DHT22;38714;53.180;5.812;2023-04-24T00:58:23;10.90;99.90
52849;DHT22;38714;53.180;5.812;2023-04-24T01:00:50;10.90;99.90
52849;DHT22;38714;53.180;5.812;2023-04-24T01:03:20;10.90;99.90
52849;DHT22;38714;53.180;5.812;2023-04-24T01:05:46;10.90;99.90
52849;DHT22;38714;53.180;5.812;2023-04-24T01:08:13;11.00;99.90
52849;DHT22;38714;53.180;5.812;2023-04-24T01:10:41;10.90;99.90
52849;DHT22;38714;53.180;5.812;2023-04-24T01:13:07;10.90;99.90
52849;DHT22;38714;53.180;5.812;2023-04-24T01:15:34;10.90;99.90
52849;DHT22;38714;53.180;5.812;2023-04-24T01:18:00;10.90;99.90
52849;DHT22;38714;53.180;5.812;2023-04-24T01:20:25;10.90;99.90
52849;DHT22;38714;53.180;5.812;2023-04-24T01:22:52;10.90;99.90
52849;DHT22;38714;53.180;5.812;2023-04-24T01:25:18;10.90;99.90
52849;DHT22;38714;53.180;5.812;2023-04-24T01:27:44;10.90;99.90
52849;DHT22;38714;53.180;5.812;2023-04-24T01:30:10;10.90;99.90
52849;DHT22;38714;53.180;5.812;2023-04-24T01:32:37;10.90;99.90
52849;DHT22;38714;53.180;5.812;2023-04-24T01:35:03;10.90;99.90
52849;DHT22;38714;53.180;5.812;2023-04-24T01:37:29;10.90;99.90
52849;DHT22;38714;53.180;5.812;2023-04-24T01:39:54;10.90;99.90
52849;DHT22;38714;53.180;5.812;2023-04-24T01:42:20;10.90;99.90
52849;DHT22;38714;53.180;5.812;2023-04-24T01:44:47;10.90;99.90
52849;DHT22;38714;53.180;5.812;2023-04-24T01:47:13;10.90;99.90
52849;DHT22;38714;53.180;5.812;2023-04-24T01:49:39;10.90;99.90
52849;DHT22;38714;53.180;5.812;2023-04-24T01:52:05;10.90;99.90
52849;DHT22;38714;53.180;5.812;2023-04-24T01:54:30;10.90;99.90
52849;DHT22;38714;53.180;5.812;2023-04-24T01:56:56;10.90;99.90
52849;DHT22;38714;53.180;5.812;2023-04-24T01:59:21;10.90;99.90
52849;DHT22;38714;53.180;5.812;2023-04-24T02:01:48;10.90;99.90
52849;DHT22;38714;53.180;5.812;2023-04-24T02:04:14;10.90;99.90
52849;DHT22;38714;53.180;5.812;2023-04-24T02:06:40;10.90;99.90
52849;DHT22;38714;53.180;5.812;2023-04-24T02:09:06;10.90;99.90
52849;DHT22;38714;53.180;5.812;2023-04-24T02:11:31;10.90;99.90
52849;DHT22;38714;53.180;5.812;2023-04-24T02:13:58;10.90;99.90
52849;DHT22;38714;53.180;5.812;2023-04-24T02:16:23;10.90;99.90
52849;DHT22;38714;53.180;5.812;2023-04-24T02:18:49;10.90;99.90
52849;DHT22;38714;53.180;5.812;2023-04-24T02:21:14;10.90;99.90
52849;DHT22;38714;53.180;5.812;2023-04-24T02:23:40;10.90;99.90
52849;DHT22;38714;53.180;5.812;2023-04-24T02:26:06;10.90;99.90
52849;DHT22;38714;53.180;5.812;2023-04-24T02:28:32;10.90;99.90
52849;DHT22;38714;53.180;5.812;2023-04-24T02:30:57;10.90;99.90
52849;DHT22;38714;53.180;5.812;2023-04-24T02:33:23;10.90;99.90
52849;DHT22;38714;53.180;5.812;2023-04-24T02:35:49;10.90;99.90
52849;DHT22;38714;53.180;5.812;2023-04-24T02:38:15;10.80;99.90
52849;DHT22;38714;53.180;5.812;2023-04-24T02:40:40;10.80;99.90
52849;DHT22;38714;53.180;5.812;2023-04-24T02:43:06;10.70;99.90
52849;DHT22;38714;53.180;5.812;2023-04-24T02:45:31;10.70;99.90
52849;DHT22;38714;53.180;5.812;2023-04-24T02:47:59;10.70;99.90
52849;DHT22;38714;53.180;5.812;2023-04-24T02:50:25;10.60;99.90
52849;DHT22;38714;53.180;5.812;2023-04-24T02:52:50;10.60;99.90
52849;DHT22;38714;53.180;5.812;2023-04-24T02:55:16;10.60;99.90
52849;DHT22;38714;53.180;5.812;2023-04-24T02:57:42;10.60;99.90
52849;DHT22;38714;53.180;5.812;2023-04-24T03:00:07;10.60;99.90
52849;DHT22;38714;53.180;5.812;2023-04-24T03:02:34;10.50;99.90
52849;DHT22;38714;53.180;5.812;2023-04-24T03:05:00;10.50;99.90
52849;DHT22;38714;53.180;5.812;2023-04-24T03:07:25;10.50;99.90
52849;DHT22;38714;53.180;5.812;2023-04-24T03:09:51;10.50;99.90
52849;DHT22;38714;53.180;5.812;2023-04-24T03:12:16;10.50;99.90
52849;DHT22;38714;53.180;5.812;2023-04-24T03:14:43;10.50;99.90
52849;DHT22;38714;53.180;5.812;2023-04-24T03:17:09;10.50;99.90
52849;DHT22;38714;53.180;5.812;2023-04-24T03:19:34;10.40;99.90
52849;DHT22;38714;53.180;5.812;2023-04-24T03:22:02;10.40;99.90
52849;DHT22;38714;53.180;5.812;2023-04-24T03:24:28;10.40;99.90
52849;DHT22;38714;53.180;5.812;2023-04-24T03:26:53;10.40;99.90
52849;DHT22;38714;53.180;5.812;2023-04-24T03:29:19;10.40;99.90
52849;DHT22;38714;53.180;5.812;2023-04-24T03:31:45;10.40;99.90
52849;DHT22;38714;53.180;5.812;2023-04-24T03:34:10;10.40;99.90
52849;DHT22;38714;53.180;5.812;2023-04-24T03:36:36;10.40;99.90
52849;DHT22;38714;53.180;5.812;2023-04-24T03:39:01;10.40;99.90
52849;DHT22;38714;53.180;5.812;2023-04-24T03:41:27;10.40;99.90
52849;DHT22;38714;53.180;5.812;2023-04-24T03:43:53;10.40;99.90
52849;DHT22;38714;53.180;5.812;2023-04-24T03:46:18;10.30;99.90
52849;DHT22;38714;53.180;5.812;2023-04-24T03:48:44;10.30;99.90
52849;DHT22;38714;53.180;5.812;2023-04-24T03:51:09;10.30;99.90
52849;DHT22;38714;53.180;5.812;2023-04-24T03:53:35;10.30;99.90
52849;DHT22;38714;53.180;5.812;2023-04-24T03:56:00;10.30;99.90
52849;DHT22;38714;53.180;5.812;2023-04-24T03:58:26;10.20;99.90
52849;DHT22;38714;53.180;5.812;2023-04-24T04:00:52;10.20;99.90
52849;DHT22;38714;53.180;5.812;2023-04-24T04:03:17;10.20;99.90
52849;DHT22;38714;53.180;5.812;2023-04-24T04:05:43;10.20;99.90
52849;DHT22;38714;53.180;5.812;2023-04-24T04:08:08;10.20;99.90
52849;DHT22;38714;53.180;5.812;2023-04-24T04:10:34;10.20;99.90
52849;DHT22;38714;53.180;5.812;2023-04-24T04:13:00;10.20;99.90
52849;DHT22;38714;53.180;5.812;2023-04-24T04:15:25;10.10;99.90
52849;DHT22;38714;53.180;5.812;2023-04-24T04:17:51;10.10;99.90
52849;DHT22;38714;53.180;5.812;2023-04-24T04:20:17;10.10;99.90
52849;DHT22;38714;53.180;5.812;2023-04-24T04:22:42;10.10;99.90
52849;DHT22;38714;53.180;5.812;2023-04-24T04:25:08;10.10;99.90
52849;DHT22;38714;53.180;5.812;2023-04-24T04:27:34;10.10;99.90
52849;DHT22;38714;53.180;5.812;2023-04-24T04:30:01;10.00;99.90
52849;DHT22;38714;53.180;5.812;2023-04-24T04:32:33;10.10;99.90
52849;DHT22;38714;53.180;5.812;2023-04-24T04:34:59;10.10;99.90
52849;DHT22;38714;53.180;5.812;2023-04-24T04:37:34;10.00;99.90
52849;DHT22;38714;53.180;5.812;2023-04-24T04:40:00;10.00;99.90
52849;DHT22;38714;53.180;5.812;2023-04-24T04:42:27;10.00;99.90
52849;DHT22;38714;53.180;5.812;2023-04-24T04:44:53;10.00;99.90
52849;DHT22;38714;53.180;5.812;2023-04-24T04:47:21;10.00;99.90
52849;DHT22;38714;53.180;5.812;2023-04-24T04:49:48;10.00;99.90
52849;DHT22;38714;53.180;5.812;2023-04-24T04:52:14;9.90;99.90
52849;DHT22;38714;53.180;5.812;2023-04-24T04:54:40;9.90;99.90
52849;DHT22;38714;53.180;5.812;2023-04-24T04:57:06;9.90;99.90
52849;DHT22;38714;53.180;5.812;2023-04-24T04:59:31;10.00;99.90
52849;DHT22;38714;53.180;5.812;2023-04-24T05:01:57;9.90;99.90
52849;DHT22;38714;53.180;5.812;2023-04-24T05:04:22;9.90;99.90
52849;DHT22;38714;53.180;5.812;2023-04-24T05:06:50;9.90;99.90
52849;DHT22;38714;53.180;5.812;2023-04-24T05:09:19;9.90;99.90
52849;DHT22;38714;53.180;5.812;2023-04-24T05:11:44;9.90;99.90
52849;DHT22;38714;53.180;5.812;2023-04-24T05:14:10;9.90;99.90
52849;DHT22;38714;53.180;5.812;2023-04-24T05:16:38;9.90;99.90
52849;DHT22;38714;53.180;5.812;2023-04-24T05:19:03;9.90;99.90
52849;DHT22;38714;53.180;5.812;2023-04-24T05:21:29;9.90;99.90
52849;DHT22;38714;53.180;5.812;2023-04-24T05:23:54;9.90;99.90
52849;DHT22;38714;53.180;5.812;2023-04-24T05:26:20;9.90;99.90
52849;DHT22;38714;53.180;5.812;2023-04-24T05:28:46;9.80;99.90
52849;DHT22;38714;53.180;5.812;2023-04-24T05:31:11;9.90;99.90
52849;DHT22;38714;53.180;5.812;2023-04-24T05:33:37;9.80;99.90
52849;DHT22;38714;53.180;5.812;2023-04-24T05:36:03;9.80;99.90
52849;DHT22;38714;53.180;5.812;2023-04-24T05:38:30;9.80;99.90
52849;DHT22;38714;53.180;5.812;2023-04-24T05:40:56;9.80;99.90
52849;DHT22;38714;53.180;5.812;2023-04-24T05:43:21;9.80;99.90
52849;DHT22;38714;53.180;5.812;2023-04-24T05:45:47;9.80;99.90
52849;DHT22;38714;53.180;5.812;2023-04-24T05:48:13;9.80;99.90
52849;DHT22;38714;53.180;5.812;2023-04-24T05:50:38;9.80;99.90
52849;DHT22;38714;53.180;5.812;2023-04-24T05:53:04;9.80;99.90
52849;DHT22;38714;53.180;5.812;2023-04-24T05:55:30;9.80;99.90
52849;DHT22;38714;53.180;5.812;2023-04-24T05:57:56;9.80;99.90
52849;DHT22;38714;53.180;5.812;2023-04-24T06:00:22;9.80;99.90
52849;DHT22;38714;53.180;5.812;2023-04-24T06:02:47;9.80;99.90
52849;DHT22;38714;53.180;5.812;2023-04-24T06:05:13;9.80;99.90
52849;DHT22;38714;53.180;5.812;2023-04-24T06:07:38;9.70;99.90
52849;DHT22;38714;53.180;5.812;2023-04-24T06:10:04;9.80;99.90
52849;DHT22;38714;53.180;5.812;2023-04-24T06:12:30;9.70;99.90
52849;DHT22;38714;53.180;5.812;2023-04-24T06:14:56;9.70;99.90
52849;DHT22;38714;53.180;5.812;2023-04-24T06:17:22;9.70;99.90
52849;DHT22;38714;53.180;5.812;2023-04-24T06:19:47;9.70;99.90
52849;DHT22;38714;53.180;5.812;2023-04-24T06:22:13;9.80;99.90
52849;DHT22;38714;53.180;5.812;2023-04-24T06:24:42;9.70;99.90
52849;DHT22;38714;53.180;5.812;2023-04-24T06:27:07;9.70;99.90
52849;DHT22;38714;53.180;5.812;2023-04-24T06:29:33;9.60;99.90
52849;DHT22;38714;53.180;5.812;2023-04-24T06:31:59;9.60;99.90
52849;DHT22;38714;53.180;5.812;2023-04-24T06:34:25;9.60;99.90
52849;DHT22;38714;53.180;5.812;2023-04-24T06:36:51;9.60;99.90
52849;DHT22;38714;53.180;5.812;2023-04-24T06:39:16;9.60;99.90
52849;DHT22;38714;53.180;5.812;2023-04-24T06:41:42;9.60;99.90
52849;DHT22;38714;53.180;5.812;2023-04-24T06:44:08;9.50;99.90
52849;DHT22;38714;53.180;5.812;2023-04-24T06:46:33;9.50;99.90
52849;DHT22;38714;53.180;5.812;2023-04-24T06:49:00;9.50;99.90
52849;DHT22;38714;53.180;5.812;2023-04-24T06:51:26;9.50;99.90
52849;DHT22;38714;53.180;5.812;2023-04-24T06:53:55;9.40;99.90
52849;DHT22;38714;53.180;5.812;2023-04-24T06:56:24;9.40;99.90
52849;DHT22;38714;53.180;5.812;2023-04-24T06:58:50;9.40;99.90
52849;DHT22;38714;53.180;5.812;2023-04-24T07:01:16;9.40;99.90
52849;DHT22;38714;53.180;5.812;2023-04-24T07:03:42;9.40;99.90
52849;DHT22;38714;53.180;5.812;2023-04-24T07:06:08;9.40;99.90
52849;DHT22;38714;53.180;5.812;2023-04-24T07:08:34;9.40;99.90
52849;DHT22;38714;53.180;5.812;2023-04-24T07:11:01;9.30;99.90
52849;DHT22;38714;53.180;5.812;2023-04-24T07:13:27;9.30;99.90
52849;DHT22;38714;53.180;5.812;2023-04-24T07:15:53;9.30;99.90
52849;DHT22;38714;53.180;5.812;2023-04-24T07:18:20;9.30;99.90
52849;DHT22;38714;53.180;5.812;2023-04-24T07:20:46;9.30;99.90
52849;DHT22;38714;53.180;5.812;2023-04-24T07:23:12;9.30;99.90
52849;DHT22;38714;53.180;5.812;2023-04-24T07:25:38;9.30;99.90
52849;DHT22;38714;53.180;5.812;2023-04-24T07:28:04;9.30;99.90
52849;DHT22;38714;53.180;5.812;2023-04-24T07:30:31;9.30;99.90
52849;DHT22;38714;53.180;5.812;2023-04-24T07:32:58;9.20;99.90
52849;DHT22;38714;53.180;5.812;2023-04-24T07:35:24;9.30;99.90
52849;DHT22;38714;53.180;5.812;2023-04-24T07:37:53;9.30;99.90
52849;DHT22;38714;53.180;5.812;2023-04-24T07:40:20;9.20;99.90
52849;DHT22;38714;53.180;5.812;2023-04-24T07:42:45;9.20;99.90
52849;DHT22;38714;53.180;5.812;2023-04-24T07:45:14;9.30;99.90
52849;DHT22;38714;53.180;5.812;2023-04-24T07:47:41;9.20;99.90
52849;DHT22;38714;53.180;5.812;2023-04-24T07:50:09;9.30;99.90
52849;DHT22;38714;53.180;5.812;2023-04-24T07:52:35;9.20;99.90
52849;DHT22;38714;53.180;5.812;2023-04-24T07:55:01;9.20;99.90
52849;DHT22;38714;53.180;5.812;2023-04-24T07:57:28;9.30;99.90
52849;DHT22;38714;53.180;5.812;2023-04-24T07:59:54;9.30;99.90
52849;DHT22;38714;53.180;5.812;2023-04-24T08:02:19;9.30;99.90
52849;DHT22;38714;53.180;5.812;2023-04-24T08:04:47;9.30;99.90
52849;DHT22;38714;53.180;5.812;2023-04-24T08:07:12;9.30;99.90
52849;DHT22;38714;53.180;5.812;2023-04-24T08:09:38;9.40;99.90
52849;DHT22;38714;53.180;5.812;2023-04-24T08:12:04;9.30;99.90
52849;DHT22;38714;53.180;5.812;2023-04-24T08:14:29;9.40;99.90
52849;DHT22;38714;53.180;5.812;2023-04-24T08:16:55;9.40;99.90
52849;DHT22;38714;53.180;5.812;2023-04-24T08:19:21;9.40;99.90
52849;DHT22;38714;53.180;5.812;2023-04-24T08:21:47;9.40;99.90
52849;DHT22;38714;53.180;5.812;2023-04-24T08:24:13;9.40;99.90
52849;DHT22;38714;53.180;5.812;2023-04-24T08:26:39;9.40;99.90
52849;DHT22;38714;53.180;5.812;2023-04-24T08:29:05;9.40;99.90
52849;DHT22;38714;53.180;5.812;2023-04-24T08:31:32;9.40;99.90
52849;DHT22;38714;53.180;5.812;2023-04-24T08:33:58;9.40;99.90
52849;DHT22;38714;53.180;5.812;2023-04-24T08:36:25;9.40;99.90
52849;DHT22;38714;53.180;5.812;2023-04-24T08:38:51;9.50;99.90
52849;DHT22;38714;53.180;5.812;2023-04-24T08:41:18;9.50;99.90
52849;DHT22;38714;53.180;5.812;2023-04-24T08:43:46;9.50;99.90
52849;DHT22;38714;53.180;5.812;2023-04-24T08:46:13;9.60;99.90
52849;DHT22;38714;53.180;5.812;2023-04-24T08:48:39;9.60;99.90
52849;DHT22;38714;53.180;5.812;2023-04-24T08:51:06;9.60;99.90
52849;DHT22;38714;53.180;5.812;2023-04-24T08:53:32;9.60;99.90
52849;DHT22;38714;53.180;5.812;2023-04-24T08:55:59;9.70;99.90
52849;DHT22;38714;53.180;5.812;2023-04-24T08:58:27;9.70;99.90
52849;DHT22;38714;53.180;5.812;2023-04-24T09:00:56;9.80;99.90
52849;DHT22;38714;53.180;5.812;2023-04-24T09:03:23;9.90;99.90
52849;DHT22;38714;53.180;5.812;2023-04-24T09:05:49;9.90;99.90
52849;DHT22;38714;53.180;5.812;2023-04-24T09:08:18;9.90;99.90
52849;DHT22;38714;53.180;5.812;2023-04-24T09:10:44;10.00;99.90
52849;DHT22;38714;53.180;5.812;2023-04-24T09:13:10;10.00;99.90
52849;DHT22;38714;53.180;5.812;2023-04-24T09:15:38;10.00;99.90
52849;DHT22;38714;53.180;5.812;2023-04-24T09:18:04;10.10;99.90
52849;DHT22;38714;53.180;5.812;2023-04-24T09:20:31;10.10;99.90
52849;DHT22;38714;53.180;5.812;2023-04-24T09:22:57;10.00;99.90
52849;DHT22;38714;53.180;5.812;2023-04-24T09:25:32;10.00;99.90
52849;DHT22;38714;53.180;5.812;2023-04-24T09:28:02;10.10;99.90
52849;DHT22;38714;53.180;5.812;2023-04-24T09:30:29;10.00;99.90
52849;DHT22;38714;53.180;5.812;2023-04-24T09:33:14;10.00;99.90
52849;DHT22;38714;53.180;5.812;2023-04-24T09:36:01;10.00;99.90
52849;DHT22;38714;53.180;5.812;2023-04-24T09:38:38;10.00;99.90
52849;DHT22;38714;53.180;5.812;2023-04-24T09:41:06;10.00;99.90
52849;DHT22;38714;53.180;5.812;2023-04-24T09:43:34;10.10;99.90
52849;DHT22;38714;53.180;5.812;2023-04-24T09:46:05;10.00;99.90
52849;DHT22;38714;53.180;5.812;2023-04-24T09:48:35;10.00;99.90
52849;DHT22;38714;53.180;5.812;2023-04-24T09:51:03;10.00;99.90
52849;DHT22;38714;53.180;5.812;2023-04-24T09:53:30;10.00;99.90
52849;DHT22;38714;53.180;5.812;2023-04-24T09:55:56;10.00;99.90
52849;DHT22;38714;53.180;5.812;2023-04-24T09:58:25;10.00;99.90
52849;DHT22;38714;53.180;5.812;2023-04-24T10:00:54;9.90;99.90
52849;DHT22;38714;53.180;5.812;2023-04-24T10:03:21;9.90;99.90
52849;DHT22;38714;53.180;5.812;2023-04-24T10:05:48;9.90;99.90
52849;DHT22;38714;53.180;5.812;2023-04-24T10:08:16;9.90;99.90
52849;DHT22;38714;53.180;5.812;2023-04-24T10:10:43;9.90;99.90
52849;DHT22;38714;53.180;5.812;2023-04-24T10:13:10;10.00;99.90
52849;DHT22;38714;53.180;5.812;2023-04-24T10:15:37;10.00;99.90
52849;DHT22;38714;53.180;5.812;2023-04-24T10:18:05;10.10;99.90
52849;DHT22;38714;53.180;5.812;2023-04-24T10:20:32;10.10;99.90
52849;DHT22;38714;53.180;5.812;2023-04-24T10:22:59;10.10;99.90
52849;DHT22;38714;53.180;5.812;2023-04-24T10:25:29;10.20;99.90
52849;DHT22;38714;53.180;5.812;2023-04-24T10:27:56;10.20;99.90
52849;DHT22;38714;53.180;5.812;2023-04-24T10:30:26;10.30;99.90
52849;DHT22;38714;53.180;5.812;2023-04-24T10:32:52;10.30;99.90
52849;DHT22;38714;53.180;5.812;2023-04-24T10:35:18;10.30;99.90
52849;DHT22;38714;53.180;5.812;2023-04-24T10:38:10;10.30;99.90
52849;DHT22;38714;53.180;5.812;2023-04-24T10:40:37;10.30;99.90
52849;DHT22;38714;53.180;5.812;2023-04-24T10:43:07;10.40;99.90
52849;DHT22;38714;53.180;5.812;2023-04-24T10:45:37;10.40;99.90
52849;DHT22;38714;53.180;5.812;2023-04-24T10:48:05;10.40;99.90
52849;DHT22;38714;53.180;5.812;2023-04-24T10:51:02;10.40;99.90
52849;DHT22;38714;53.180;5.812;2023-04-24T10:53:29;10.30;99.90
52849;DHT22;38714;53.180;5.812;2023-04-24T10:56:05;10.30;99.90
52849;DHT22;38714;53.180;5.812;2023-04-24T10:58:42;10.20;99.90
52849;DHT22;38714;53.180;5.812;2023-04-24T11:01:30;10.10;99.90
52849;DHT22;38714;53.180;5.812;2023-04-24T11:03:58;10.10;99.90
52849;DHT22;38714;53.180;5.812;2023-04-24T11:06:32;10.00;99.90
52849;DHT22;38714;53.180;5.812;2023-04-24T11:09:05;9.90;99.90
52849;DHT22;38714;53.180;5.812;2023-04-24T11:11:32;9.90;99.90
52849;DHT22;38714;53.180;5.812;2023-04-24T11:16:29;9.80;99.90
52849;DHT22;38714;53.180;5.812;2023-04-24T11:19:17;9.80;99.90
52849;DHT22;38714;53.180;5.812;2023-04-24T11:21:56;9.70;99.90
52849;DHT22;38714;53.180;5.812;2023-04-24T11:27:18;9.70;99.90
52849;DHT22;38714;53.180;5.812;2023-04-24T11:29:48;9.80;99.90
52849;DHT22;38714;53.180;5.812;2023-04-24T11:34:51;9.90;99.90
52849;DHT22;38714;53.180;5.812;2023-04-24T11:37:17;9.90;99.90
52849;DHT22;38714;53.180;5.812;2023-04-24T11:39:43;9.90;99.90
52849;DHT22;38714;53.180;5.812;2023-04-24T11:42:09;9.90;99.90
52849;DHT22;38714;53.180;5.812;2023-04-24T11:44:35;9.80;99.90
52849;DHT22;38714;53.180;5.812;2023-04-24T11:47:08;9.80;99.90
52849;DHT22;38714;53.180;5.812;2023-04-24T11:49:36;9.90;99.90
52849;DHT22;38714;53.180;5.812;2023-04-24T11:52:02;9.90;99.90
52849;DHT22;38714;53.180;5.812;2023-04-24T11:54:28;10.00;99.90
52849;DHT22;38714;53.180;5.812;2023-04-24T11:56:55;10.00;99.90
52849;DHT22;38714;53.180;5.812;2023-04-24T11:59:21;10.10;99.90
52849;DHT22;38714;53.180;5.812;2023-04-24T12:01:47;10.20;99.90
52849;DHT22;38714;53.180;5.812;2023-04-24T12:04:16;10.30;99.90
52849;DHT22;38714;53.180;5.812;2023-04-24T12:07:17;10.30;99.90
52849;DHT22;38714;53.180;5.812;2023-04-24T12:09:48;10.40;99.90
52849;DHT22;38714;53.180;5.812;2023-04-24T12:12:16;10.40;99.90
52849;DHT22;38714;53.180;5.812;2023-04-24T12:14:49;10.40;99.90
52849;DHT22;38714;53.180;5.812;2023-04-24T12:17:16;10.40;99.90
52849;DHT22;38714;53.180;5.812;2023-04-24T12:19:48;10.50;99.90
52849;DHT22;38714;53.180;5.812;2023-04-24T12:22:14;10.50;99.90
52849;DHT22;38714;53.180;5.812;2023-04-24T12:24:56;10.50;99.90
52849;DHT22;38714;53.180;5.812;2023-04-24T12:27:22;10.50;99.90
52849;DHT22;38714;53.180;5.812;2023-04-24T12:29:52;10.50;99.90
52849;DHT22;38714;53.180;5.812;2023-04-24T12:32:18;10.50;99.90
52849;DHT22;38714;53.180;5.812;2023-04-24T12:34:44;10.50;99.90
52849;DHT22;38714;53.180;5.812;2023-04-24T12:37:11;10.50;99.90
52849;DHT22;38714;53.180;5.812;2023-04-24T12:39:37;10.50;99.90
52849;DHT22;38714;53.180;5.812;2023-04-24T12:42:03;10.50;99.90
52849;DHT22;38714;53.180;5.812;2023-04-24T12:44:32;10.50;99.90
52849;DHT22;38714;53.180;5.812;2023-04-24T12:47:03;10.50;99.90
52849;DHT22;38714;53.180;5.812;2023-04-24T12:49:32;10.50;99.90
52849;DHT22;38714;53.180;5.812;2023-04-24T12:51:58;10.50;99.90
52849;DHT22;38714;53.180;5.812;2023-04-24T12:54:24;10.50;99.90
52849;DHT22;38714;53.180;5.812;2023-04-24T12:56:49;10.50;99.90
52849;DHT22;38714;53.180;5.812;2023-04-24T12:59:15;10.50;99.90
52849;DHT22;38714;53.180;5.812;2023-04-24T13:01:41;10.50;99.90
52849;DHT22;38714;53.180;5.812;2023-04-24T13:04:07;10.50;99.90
52849;DHT22;38714;53.180;5.812;2023-04-24T13:06:32;10.50;99.90
52849;DHT22;38714;53.180;5.812;2023-04-24T13:08:58;10.40;99.90
52849;DHT22;38714;53.180;5.812;2023-04-24T13:11:24;10.40;99.90
52849;DHT22;38714;53.180;5.812;2023-04-24T13:13:50;10.40;99.90
52849;DHT22;38714;53.180;5.812;2023-04-24T13:16:15;10.30;99.90
52849;DHT22;38714;53.180;5.812;2023-04-24T13:18:41;10.30;99.90
52849;DHT22;38714;53.180;5.812;2023-04-24T13:21:06;10.20;99.90
52849;DHT22;38714;53.180;5.812;2023-04-24T13:23:32;10.20;99.90
52849;DHT22;38714;53.180;5.812;2023-04-24T13:25:57;10.10;99.90
52849;DHT22;38714;53.180;5.812;2023-04-24T13:28:26;10.20;99.90
52849;DHT22;38714;53.180;5.812;2023-04-24T13:30:53;10.10;99.90
52849;DHT22;38714;53.180;5.812;2023-04-24T13:33:18;10.10;99.90
52849;DHT22;38714;53.180;5.812;2023-04-24T13:35:44;10.00;99.90
52849;DHT22;38714;53.180;5.812;2023-04-24T13:38:10;10.00;99.90
52849;DHT22;38714;53.180;5.812;2023-04-24T13:40:35;10.10;99.90
52849;DHT22;38714;53.180;5.812;2023-04-24T13:43:02;10.10;99.90
52849;DHT22;38714;53.180;5.812;2023-04-24T13:45:27;10.10;99.90
52849;DHT22;38714;53.180;5.812;2023-04-24T13:47:53;10.20;99.90
52849;DHT22;38714;53.180;5.812;2023-04-24T13:50:20;10.20;99.90
52849;DHT22;38714;53.180;5.812;2023-04-24T13:52:45;10.20;99.90
52849;DHT22;38714;53.180;5.812;2023-04-24T13:55:11;10.20;99.90
52849;DHT22;38714;53.180;5.812;2023-04-24T13:57:37;10.20;99.90
52849;DHT22;38714;53.180;5.812;2023-04-24T14:00:03;10.20;99.90
52849;DHT22;38714;53.180;5.812;2023-04-24T14:02:29;10.10;99.90
52849;DHT22;38714;53.180;5.812;2023-04-24T14:04:55;10.10;99.90
52849;DHT22;38714;53.180;5.812;2023-04-24T14:07:21;10.10;99.90
52849;DHT22;38714;53.180;5.812;2023-04-24T14:09:46;10.00;99.90
52849;DHT22;38714;53.180;5.812;2023-04-24T14:12:12;10.00;99.90
52849;DHT22;38714;53.180;5.812;2023-04-24T14:14:39;10.00;99.90
52849;DHT22;38714;53.180;5.812;2023-04-24T14:17:05;10.00;99.90
52849;DHT22;38714;53.180;5.812;2023-04-24T14:19:31;10.00;99.90
52849;DHT22;38714;53.180;5.812;2023-04-24T14:21:56;10.00;99.90
52849;DHT22;38714;53.180;5.812;2023-04-24T14:24:23;10.00;99.90
52849;DHT22;38714;53.180;5.812;2023-04-24T14:26:49;10.00;99.90
52849;DHT22;38714;53.180;5.812;2023-04-24T14:29:15;9.90;99.90
52849;DHT22;38714;53.180;5.812;2023-04-24T14:31:42;9.90;99.90
52849;DHT22;38714;53.180;5.812;2023-04-24T14:34:08;9.90;99.90
52849;DHT22;38714;53.180;5.812;2023-04-24T14:36:33;9.90;99.90
52849;DHT22;38714;53.180;5.812;2023-04-24T14:38:59;9.80;99.90
52849;DHT22;38714;53.180;5.812;2023-04-24T14:41:25;9.80;99.90
52849;DHT22;38714;53.180;5.812;2023-04-24T14:43:50;9.80;99.90
52849;DHT22;38714;53.180;5.812;2023-04-24T14:46:16;9.80;99.90
52849;DHT22;38714;53.180;5.812;2023-04-24T14:48:41;9.80;99.90
52849;DHT22;38714;53.180;5.812;2023-04-24T14:51:07;9.80;99.90
52849;DHT22;38714;53.180;5.812;2023-04-24T14:53:32;9.80;99.90
52849;DHT22;38714;53.180;5.812;2023-04-24T14:55:58;9.80;99.90
52849;DHT22;38714;53.180;5.812;2023-04-24T14:58:23;9.70;99.90
52849;DHT22;38714;53.180;5.812;2023-04-24T15:00:49;9.80;99.90
52849;DHT22;38714;53.180;5.812;2023-04-24T15:03:18;9.70;99.90
52849;DHT22;38714;53.180;5.812;2023-04-24T15:05:43;9.80;99.90
52849;DHT22;38714;53.180;5.812;2023-04-24T15:08:09;9.80;99.90
52849;DHT22;38714;53.180;5.812;2023-04-24T15:10:36;9.80;99.90
52849;DHT22;38714;53.180;5.812;2023-04-24T15:13:01;9.80;99.90
52849;DHT22;38714;53.180;5.812;2023-04-24T15:15:27;9.70;99.90
52849;DHT22;38714;53.180;5.812;2023-04-24T15:17:52;9.70;99.90
52849;DHT22;38714;53.180;5.812;2023-04-24T15:20:18;9.70;99.90
52849;DHT22;38714;53.180;5.812;2023-04-24T15:22:44;9.70;99.90
52849;DHT22;38714;53.180;5.812;2023-04-24T15:25:10;9.70;99.90
52849;DHT22;38714;53.180;5.812;2023-04-24T15:27:43;9.70;99.90
52849;DHT22;38714;53.180;5.812;2023-04-24T15:30:09;9.70;99.90
52849;DHT22;38714;53.180;5.812;2023-04-24T15:32:35;9.70;99.90
52849;DHT22;38714;53.180;5.812;2023-04-24T15:35:01;9.70;99.90
52849;DHT22;38714;53.180;5.812;2023-04-24T15:37:27;9.60;99.90
52849;DHT22;38714;53.180;5.812;2023-04-24T15:39:52;9.60;99.90
52849;DHT22;38714;53.180;5.812;2023-04-24T15:42:18;9.60;99.90
52849;DHT22;38714;53.180;5.812;2023-04-24T15:44:43;9.60;99.90